LNLOL ENHD-ENRK
Flight info
| Callsign | LNLOL |
|---|---|
| Flight time | 1h 7m |
| Altitude | 9000 |
| Route | ODINU DCT IBSAT |
| Aircraft | C208/L-SDFGRY/C |
Departure
| Time | 2026-05-04 11:12 |
|---|---|
| Airport | Haugesund Airport, Karmøy (ENHD) |
Arrival
| Time | 2026-05-04 12:19 |
|---|---|
| Airport | Rakkestad Astorp Airfield (ENRK) |
| Time | Latitude | Longitude | Altitude | Speed | Heading |
|---|---|---|---|---|---|
| 2026-05-04 10:21 | 59.34479 | 5.21341 | 88 ft | 0 kts | 286° |
| 2026-05-04 10:56 | 59.34483 | 5.21338 | 86 ft | 2 kts | 13° |
| 2026-05-04 10:57 | 59.34471 | 5.21370 | 87 ft | 7 kts | 138° |
| 2026-05-04 10:57 | 59.34426 | 5.21449 | 88 ft | 1 kts | 135° |
| 2026-05-04 10:57 | 59.34399 | 5.21505 | 86 ft | 11 kts | 131° |
| 2026-05-04 10:57 | 59.34362 | 5.21581 | 87 ft | 2 kts | 141° |
| 2026-05-04 10:58 | 59.34324 | 5.21588 | 86 ft | 9 kts | 211° |
| 2026-05-04 10:58 | 59.34304 | 5.21549 | 89 ft | 0 kts | 225° |
| 2026-05-04 11:06 | 59.34303 | 5.21548 | 87 ft | 1 kts | 225° |
| 2026-05-04 11:08 | 59.33756 | 5.22375 | 96 ft | 7 kts | 278° |
| 2026-05-04 11:10 | 59.34072 | 5.21747 | 85 ft | 82 kts | 314° |
| 2026-05-04 11:12 | 59.37340 | 5.15806 | 2209 ft | 109 kts | 314° |
| 2026-05-04 11:12 | 59.38102 | 5.15436 | 2563 ft | 124 kts | 1° |
| 2026-05-04 11:12 | 59.38860 | 5.16327 | 2915 ft | 136 kts | 46° |
| 2026-05-04 11:12 | 59.39144 | 5.18090 | 3274 ft | 138 kts | 92° |
| 2026-05-04 11:13 | 59.39187 | 5.19934 | 3646 ft | 134 kts | 67° |
| 2026-05-04 11:13 | 59.39546 | 5.21539 | 3990 ft | 128 kts | 62° |
| 2026-05-04 11:13 | 59.39876 | 5.23136 | 4349 ft | 125 kts | 62° |
| 2026-05-04 11:13 | 59.40204 | 5.24687 | 4702 ft | 121 kts | 62° |
| 2026-05-04 11:14 | 59.40519 | 5.26174 | 5041 ft | 115 kts | 60° |
| 2026-05-04 11:14 | 59.40818 | 5.27569 | 5365 ft | 107 kts | 60° |
| 2026-05-04 11:14 | 59.41098 | 5.28867 | 5673 ft | 99 kts | 58° |
| 2026-05-04 11:16 | 59.43794 | 5.41628 | 6663 ft | 168 kts | 62° |
| 2026-05-04 11:16 | 59.44250 | 5.43759 | 6848 ft | 170 kts | 61° |
| 2026-05-04 11:16 | 59.44706 | 5.45911 | 7020 ft | 170 kts | 61° |
| 2026-05-04 11:17 | 59.45158 | 5.48062 | 7200 ft | 171 kts | 62° |
| 2026-05-04 11:17 | 59.45610 | 5.50239 | 7381 ft | 173 kts | 62° |
| 2026-05-04 11:19 | 59.48869 | 5.65779 | 8677 ft | 181 kts | 63° |
| 2026-05-04 11:19 | 59.49349 | 5.68075 | 8864 ft | 183 kts | 62° |
| 2026-05-04 11:19 | 59.49848 | 5.70452 | 8861 ft | 191 kts | 63° |
| 2026-05-04 11:19 | 59.50344 | 5.72893 | 8867 ft | 195 kts | 64° |
| 2026-05-04 11:20 | 59.50878 | 5.75407 | 8870 ft | 201 kts | 61° |
| 2026-05-04 11:20 | 59.51413 | 5.77925 | 8871 ft | 203 kts | 64° |
| 2026-05-04 11:20 | 59.51940 | 5.80514 | 8866 ft | 203 kts | 66° |
| 2026-05-04 11:20 | 59.52463 | 5.83058 | 8868 ft | 199 kts | 63° |
| 2026-05-04 11:22 | 59.56103 | 6.00663 | 8856 ft | 197 kts | 63° |
| 2026-05-04 11:22 | 59.56613 | 6.03185 | 8853 ft | 198 kts | 64° |
| 2026-05-04 11:23 | 59.57127 | 6.05707 | 8853 ft | 198 kts | 63° |
| 2026-05-04 11:23 | 59.57646 | 6.08227 | 8840 ft | 198 kts | 63° |
| 2026-05-04 11:24 | 59.60724 | 6.23280 | 8844 ft | 195 kts | 64° |
| 2026-05-04 11:25 | 59.61219 | 6.25787 | 8849 ft | 196 kts | 64° |
| 2026-05-04 11:25 | 59.61729 | 6.28258 | 8848 ft | 193 kts | 60° |
| 2026-05-04 11:25 | 59.62231 | 6.30712 | 8845 ft | 194 kts | 65° |
| 2026-05-04 11:26 | 59.63223 | 6.35695 | 8841 ft | 196 kts | 64° |
| 2026-05-04 11:27 | 59.66777 | 6.53433 | 8840 ft | 199 kts | 63° |
| 2026-05-04 11:28 | 59.67302 | 6.55971 | 8840 ft | 201 kts | 63° |
| 2026-05-04 11:28 | 59.67809 | 6.58504 | 8839 ft | 202 kts | 64° |
| 2026-05-04 11:28 | 59.68234 | 6.61166 | 8822 ft | 205 kts | 79° |
| 2026-05-04 11:28 | 59.68161 | 6.63967 | 8827 ft | 205 kts | 101° |
| 2026-05-04 11:29 | 59.67880 | 6.66723 | 8828 ft | 203 kts | 102° |
| 2026-05-04 11:29 | 59.67651 | 6.69457 | 8836 ft | 202 kts | 99° |
| 2026-05-04 11:29 | 59.67465 | 6.72218 | 8827 ft | 201 kts | 98° |
| 2026-05-04 11:29 | 59.67275 | 6.74952 | 8827 ft | 199 kts | 97° |
| 2026-05-04 11:31 | 59.65854 | 6.94241 | 8827 ft | 203 kts | 100° |
| 2026-05-04 11:33 | 59.64429 | 7.13175 | 9379 ft | 191 kts | 100° |
| 2026-05-04 11:33 | 59.64233 | 7.15749 | 9506 ft | 190 kts | 99° |
| 2026-05-04 11:33 | 59.64047 | 7.18308 | 9632 ft | 187 kts | 99° |
| 2026-05-04 11:34 | 59.63861 | 7.20857 | 9780 ft | 188 kts | 97° |
| 2026-05-04 11:34 | 59.63664 | 7.23377 | 9896 ft | 189 kts | 99° |
| 2026-05-04 11:34 | 59.63459 | 7.25984 | 10018 ft | 191 kts | 98° |
| 2026-05-04 11:34 | 59.63264 | 7.28549 | 10138 ft | 191 kts | 98° |
| 2026-05-04 11:35 | 59.63067 | 7.31123 | 10261 ft | 189 kts | 98° |
| 2026-05-04 11:35 | 59.62872 | 7.33709 | 10381 ft | 193 kts | 99° |
| 2026-05-04 11:35 | 59.62663 | 7.36340 | 10512 ft | 194 kts | 99° |
| 2026-05-04 11:35 | 59.62460 | 7.38955 | 10630 ft | 191 kts | 99° |
| 2026-05-04 11:36 | 59.62259 | 7.41548 | 10751 ft | 191 kts | 100° |
| 2026-05-04 11:36 | 59.62055 | 7.44138 | 10876 ft | 191 kts | 99° |
| 2026-05-04 11:36 | 59.61852 | 7.46745 | 11005 ft | 193 kts | 99° |
| 2026-05-04 11:36 | 59.61648 | 7.49350 | 11133 ft | 196 kts | 99° |
| 2026-05-04 11:37 | 59.61438 | 7.52019 | 11258 ft | 196 kts | 100° |
| 2026-05-04 11:37 | 59.61228 | 7.54680 | 11389 ft | 196 kts | 99° |
| 2026-05-04 11:37 | 59.61019 | 7.57343 | 11527 ft | 198 kts | 99° |
| 2026-05-04 11:37 | 59.60805 | 7.60025 | 11653 ft | 199 kts | 100° |
| 2026-05-04 11:38 | 59.60590 | 7.62714 | 11791 ft | 198 kts | 100° |
| 2026-05-04 11:38 | 59.60375 | 7.65436 | 11812 ft | 204 kts | 99° |
| 2026-05-04 11:38 | 59.60155 | 7.68212 | 11830 ft | 211 kts | 100° |
| 2026-05-04 11:38 | 59.59924 | 7.71091 | 11835 ft | 213 kts | 100° |
| 2026-05-04 11:39 | 59.59688 | 7.74012 | 11833 ft | 218 kts | 101° |
| 2026-05-04 11:39 | 59.59448 | 7.76989 | 11827 ft | 220 kts | 100° |
| 2026-05-04 11:40 | 59.58042 | 7.94318 | 11816 ft | 216 kts | 99° |
| 2026-05-04 11:41 | 59.57801 | 7.97241 | 11817 ft | 216 kts | 101° |
| 2026-05-04 11:41 | 59.57556 | 8.00162 | 11821 ft | 216 kts | 99° |
| 2026-05-04 11:41 | 59.57318 | 8.03108 | 11821 ft | 218 kts | 99° |
| 2026-05-04 11:41 | 59.57071 | 8.06080 | 11816 ft | 220 kts | 100° |
| 2026-05-04 11:42 | 59.56821 | 8.09066 | 11806 ft | 220 kts | 100° |
| 2026-05-04 11:42 | 59.56578 | 8.12036 | 11805 ft | 220 kts | 99° |
| 2026-05-04 11:42 | 59.56328 | 8.15011 | 11806 ft | 219 kts | 100° |
| 2026-05-04 11:42 | 59.56079 | 8.17937 | 11805 ft | 219 kts | 100° |
| 2026-05-04 11:43 | 59.55831 | 8.20903 | 11806 ft | 220 kts | 99° |
| 2026-05-04 11:43 | 59.55579 | 8.23880 | 11805 ft | 221 kts | 100° |
| 2026-05-04 11:43 | 59.55328 | 8.26867 | 11802 ft | 220 kts | 100° |
| 2026-05-04 11:43 | 59.55077 | 8.29839 | 11797 ft | 220 kts | 101° |
| 2026-05-04 11:44 | 59.54828 | 8.32808 | 11801 ft | 220 kts | 100° |
| 2026-05-04 11:44 | 59.54571 | 8.35779 | 11780 ft | 221 kts | 101° |
| 2026-05-04 11:44 | 59.54318 | 8.38717 | 11781 ft | 220 kts | 100° |
| 2026-05-04 11:44 | 59.54065 | 8.41678 | 11778 ft | 218 kts | 99° |
| 2026-05-04 11:45 | 59.53819 | 8.44627 | 11779 ft | 218 kts | 100° |
| 2026-05-04 11:45 | 59.53559 | 8.47582 | 11765 ft | 220 kts | 101° |
| 2026-05-04 11:45 | 59.53296 | 8.50533 | 11790 ft | 219 kts | 101° |
| 2026-05-04 11:45 | 59.53043 | 8.53486 | 11786 ft | 217 kts | 101° |
| 2026-05-04 11:46 | 59.52789 | 8.56419 | 11782 ft | 217 kts | 101° |
| 2026-05-04 11:46 | 59.52536 | 8.59335 | 11776 ft | 215 kts | 101° |
| 2026-05-04 11:46 | 59.52283 | 8.62217 | 11767 ft | 213 kts | 100° |
| 2026-05-04 11:46 | 59.52033 | 8.65053 | 11765 ft | 213 kts | 102° |
| 2026-05-04 11:47 | 59.51773 | 8.67950 | 11764 ft | 216 kts | 101° |
| 2026-05-04 11:47 | 59.51523 | 8.70867 | 11767 ft | 216 kts | 101° |
| 2026-05-04 11:47 | 59.51265 | 8.73802 | 11768 ft | 218 kts | 101° |
| 2026-05-04 11:47 | 59.51003 | 8.76729 | 11763 ft | 217 kts | 101° |
| 2026-05-04 11:48 | 59.50744 | 8.79648 | 11759 ft | 216 kts | 101° |
| 2026-05-04 11:48 | 59.50486 | 8.82552 | 11758 ft | 215 kts | 102° |
| 2026-05-04 11:48 | 59.50226 | 8.85455 | 11755 ft | 215 kts | 102° |
| 2026-05-04 11:48 | 59.49968 | 8.88349 | 11745 ft | 215 kts | 101° |
| 2026-05-04 11:49 | 59.49712 | 8.91194 | 11744 ft | 213 kts | 102° |
| 2026-05-04 11:49 | 59.49454 | 8.94068 | 11743 ft | 214 kts | 102° |
| 2026-05-04 11:49 | 59.49196 | 8.96943 | 11744 ft | 213 kts | 102° |
| 2026-05-04 11:49 | 59.48935 | 8.99815 | 11745 ft | 213 kts | 102° |
| 2026-05-04 11:50 | 59.48674 | 9.02681 | 11744 ft | 212 kts | 102° |
| 2026-05-04 11:50 | 59.48411 | 9.05561 | 11752 ft | 215 kts | 102° |
| 2026-05-04 11:50 | 59.48148 | 9.08463 | 11752 ft | 217 kts | 102° |
| 2026-05-04 11:50 | 59.47878 | 9.11382 | 11747 ft | 216 kts | 103° |
| 2026-05-04 11:51 | 59.47610 | 9.14286 | 11749 ft | 216 kts | 102° |
| 2026-05-04 11:51 | 59.47351 | 9.17163 | 11745 ft | 216 kts | 102° |
| 2026-05-04 11:51 | 59.47086 | 9.20058 | 11735 ft | 214 kts | 102° |
| 2026-05-04 11:51 | 59.46820 | 9.22910 | 11742 ft | 212 kts | 103° |
| 2026-05-04 11:52 | 59.46554 | 9.25754 | 11739 ft | 211 kts | 102° |
| 2026-05-04 11:52 | 59.46295 | 9.28584 | 11742 ft | 210 kts | 102° |
| 2026-05-04 11:52 | 59.46033 | 9.31400 | 11743 ft | 210 kts | 103° |
| 2026-05-04 11:52 | 59.45767 | 9.34239 | 11746 ft | 212 kts | 103° |
| 2026-05-04 11:53 | 59.45499 | 9.37095 | 11748 ft | 213 kts | 103° |
| 2026-05-04 11:53 | 59.45234 | 9.39926 | 11751 ft | 214 kts | 103° |
| 2026-05-04 11:53 | 59.44964 | 9.42802 | 11750 ft | 213 kts | 103° |
| 2026-05-04 11:53 | 59.44697 | 9.45651 | 11746 ft | 212 kts | 103° |
| 2026-05-04 11:55 | 59.42814 | 9.65451 | 11732 ft | 210 kts | 102° |
| 2026-05-04 11:55 | 59.42551 | 9.68249 | 11734 ft | 208 kts | 103° |
| 2026-05-04 11:56 | 59.42274 | 9.71037 | 11731 ft | 209 kts | 103° |
| 2026-05-04 11:56 | 59.42001 | 9.73854 | 11737 ft | 210 kts | 103° |
| 2026-05-04 11:56 | 59.41731 | 9.76665 | 11709 ft | 212 kts | 103° |
| 2026-05-04 11:56 | 59.41451 | 9.79554 | 11606 ft | 216 kts | 103° |
| 2026-05-04 11:57 | 59.41168 | 9.82476 | 11507 ft | 219 kts | 103° |
| 2026-05-04 11:57 | 59.40886 | 9.85374 | 11412 ft | 220 kts | 103° |
| 2026-05-04 11:57 | 59.40594 | 9.88370 | 11302 ft | 220 kts | 103° |
| 2026-05-04 11:57 | 59.40309 | 9.91278 | 11211 ft | 220 kts | 103° |
| 2026-05-04 11:58 | 59.40018 | 9.94241 | 11109 ft | 218 kts | 103° |
| 2026-05-04 11:58 | 59.39742 | 9.97131 | 11007 ft | 218 kts | 103° |
| 2026-05-04 11:58 | 59.39447 | 10.00064 | 10911 ft | 220 kts | 103° |
| 2026-05-04 11:58 | 59.39150 | 10.03006 | 10813 ft | 220 kts | 102° |
| 2026-05-04 11:59 | 59.38858 | 10.05955 | 10713 ft | 220 kts | 102° |
| 2026-05-04 11:59 | 59.38566 | 10.08892 | 10608 ft | 219 kts | 102° |
| 2026-05-04 11:59 | 59.38278 | 10.11823 | 10510 ft | 219 kts | 102° |
| 2026-05-04 11:59 | 59.37985 | 10.14743 | 10410 ft | 219 kts | 102° |
| 2026-05-04 12:00 | 59.37693 | 10.17669 | 10316 ft | 218 kts | 102° |
| 2026-05-04 12:00 | 59.37401 | 10.20582 | 10217 ft | 218 kts | 102° |
| 2026-05-04 12:00 | 59.37109 | 10.23492 | 10122 ft | 217 kts | 101° |
| 2026-05-04 12:00 | 59.36824 | 10.26340 | 10019 ft | 216 kts | 102° |
| 2026-05-04 12:01 | 59.36528 | 10.29234 | 9843 ft | 214 kts | 102° |
| 2026-05-04 12:01 | 59.36241 | 10.32058 | 9655 ft | 209 kts | 101° |
| 2026-05-04 12:02 | 59.33803 | 10.47961 | 8510 ft | 200 kts | 112° |
| 2026-05-04 12:03 | 59.33324 | 10.50479 | 8325 ft | 199 kts | 112° |
| 2026-05-04 12:03 | 59.32836 | 10.53011 | 8142 ft | 198 kts | 112° |
| 2026-05-04 12:03 | 59.32347 | 10.55522 | 7959 ft | 197 kts | 112° |
| 2026-05-04 12:03 | 59.31857 | 10.58020 | 7777 ft | 196 kts | 112° |
| 2026-05-04 12:04 | 59.31366 | 10.60501 | 7595 ft | 195 kts | 112° |
| 2026-05-04 12:04 | 59.30876 | 10.62959 | 7652 ft | 194 kts | 112° |
| 2026-05-04 12:04 | 59.30361 | 10.65385 | 7478 ft | 192 kts | 119° |
| 2026-05-04 12:04 | 59.29634 | 10.67568 | 7298 ft | 191 kts | 128° |
| 2026-05-04 12:05 | 59.28879 | 10.69667 | 7123 ft | 189 kts | 127° |
| 2026-05-04 12:05 | 59.28124 | 10.71766 | 6942 ft | 188 kts | 127° |
| 2026-05-04 12:05 | 59.27369 | 10.73838 | 6768 ft | 188 kts | 127° |
| 2026-05-04 12:05 | 59.26607 | 10.75908 | 6590 ft | 188 kts | 127° |
| 2026-05-04 12:06 | 59.25841 | 10.77972 | 6421 ft | 188 kts | 127° |
| 2026-05-04 12:06 | 59.25127 | 10.80104 | 6245 ft | 188 kts | 118° |
| 2026-05-04 12:06 | 59.24565 | 10.82395 | 6057 ft | 187 kts | 115° |
| 2026-05-04 12:06 | 59.24011 | 10.84681 | 5873 ft | 185 kts | 115° |
| 2026-05-04 12:07 | 59.23457 | 10.86954 | 5694 ft | 185 kts | 115° |
| 2026-05-04 12:07 | 59.22909 | 10.89184 | 5508 ft | 183 kts | 115° |
| 2026-05-04 12:07 | 59.22367 | 10.91454 | 5328 ft | 184 kts | 116° |
| 2026-05-04 12:07 | 59.21825 | 10.93718 | 5150 ft | 183 kts | 115° |
| 2026-05-04 12:08 | 59.21288 | 10.95965 | 4964 ft | 179 kts | 116° |
| 2026-05-04 12:08 | 59.20771 | 10.98078 | 4769 ft | 169 kts | 116° |
| 2026-05-04 12:08 | 59.20274 | 11.00147 | 4552 ft | 166 kts | 116° |
| 2026-05-04 12:08 | 59.19790 | 11.02139 | 4355 ft | 161 kts | 110° |
| 2026-05-04 12:09 | 59.19686 | 11.04293 | 4155 ft | 161 kts | 87° |
| 2026-05-04 12:09 | 59.19694 | 11.06444 | 3955 ft | 154 kts | 89° |
| 2026-05-04 12:09 | 59.19688 | 11.08485 | 3752 ft | 147 kts | 89° |
| 2026-05-04 12:09 | 59.19863 | 11.10402 | 3532 ft | 142 kts | 71° |
| 2026-05-04 12:10 | 59.20130 | 11.12201 | 3342 ft | 137 kts | 71° |
| 2026-05-04 12:10 | 59.20393 | 11.14024 | 3143 ft | 139 kts | 71° |
| 2026-05-04 12:10 | 59.20662 | 11.15740 | 3110 ft | 129 kts | 71° |
| 2026-05-04 12:10 | 59.20893 | 11.17378 | 3108 ft | 119 kts | 71° |
| 2026-05-04 12:11 | 59.21120 | 11.18930 | 3077 ft | 116 kts | 70° |
| 2026-05-04 12:11 | 59.21358 | 11.20484 | 3047 ft | 124 kts | 69° |
| 2026-05-04 12:11 | 59.21814 | 11.21772 | 3090 ft | 116 kts | 42° |
| 2026-05-04 12:11 | 59.22318 | 11.22997 | 3104 ft | 118 kts | 42° |
| 2026-05-04 12:12 | 59.22866 | 11.24313 | 3110 ft | 128 kts | 43° |
| 2026-05-04 12:12 | 59.23459 | 11.25690 | 2930 ft | 134 kts | 42° |
| 2026-05-04 12:12 | 59.24033 | 11.27073 | 2955 ft | 128 kts | 45° |
| 2026-05-04 12:12 | 59.24620 | 11.28412 | 2948 ft | 133 kts | 43° |
| 2026-05-04 12:13 | 59.25203 | 11.29801 | 2881 ft | 135 kts | 45° |
| 2026-05-04 12:14 | 59.29329 | 11.39059 | 2937 ft | 122 kts | 14° |
| 2026-05-04 12:15 | 59.29842 | 11.39515 | 2926 ft | 125 kts | 20° |
| 2026-05-04 12:15 | 59.30943 | 11.40596 | 2841 ft | 138 kts | 19° |
| 2026-05-04 12:15 | 59.31811 | 11.41406 | 2782 ft | 137 kts | 17° |
| 2026-05-04 12:15 | 59.32686 | 11.42175 | 2703 ft | 139 kts | 14° |
| 2026-05-04 12:16 | 59.33591 | 11.42342 | 2611 ft | 128 kts | 342° |
| 2026-05-04 12:16 | 59.34430 | 11.41991 | 2447 ft | 119 kts | 327° |
| 2026-05-04 12:16 | 59.34840 | 11.41288 | 2155 ft | 119 kts | 298° |
| 2026-05-04 12:16 | 59.35052 | 11.39974 | 2098 ft | 97 kts | 275° |
| 2026-05-04 12:17 | 59.35332 | 11.38878 | 1967 ft | 93 kts | 310° |
| 2026-05-04 12:17 | 59.35903 | 11.38202 | 1752 ft | 102 kts | 329° |
| 2026-05-04 12:17 | 59.36592 | 11.37840 | 1541 ft | 97 kts | 335° |
| 2026-05-04 12:17 | 59.37218 | 11.37518 | 1208 ft | 89 kts | 332° |
| 2026-05-04 12:18 | 59.37869 | 11.36798 | 947 ft | 72 kts | 318° |
| 2026-05-04 12:18 | 59.38151 | 11.36436 | 792 ft | 73 kts | 319° |
| 2026-05-04 12:18 | 59.38577 | 11.35964 | 657 ft | 69 kts | 324° |
| 2026-05-04 12:18 | 59.38921 | 11.35431 | 513 ft | 58 kts | 301° |
| 2026-05-04 12:19 | 59.39164 | 11.35034 | 412 ft | 1 kts | 242° |
| 2026-05-04 12:19 | 59.39163 | 11.35033 | 411 ft | 0 kts | 244° |